Il Post

 
 

Meteo Giornale » Osservazioni meteo Austria » Salisburgo

ore: 08:20 - Osservazioni Meteo Salisburgo
Lat. 47° 48' N Lon. 13° 0' E Alt. 430 metri s.l.m.

molto_nuvoloso Europe/Vienna

9 °C

Molto Nuvoloso

Temp. 24 Ore

6 °C

16 °C

Nord

3.7 Km/h

Dew point 7 °C

Umidità 87 %

Visibilità  10 Km

Il sole sorge alle ore 06:05

Il sole tramonta alle ore 20:08

Data e Ora Cielo e Fenomeni T °C DP °C Um. % Pres. hPa Vis. km Vento km/h
Oggi h: 08:20 molto_nuvoloso Molto Nuvoloso 9 7 87 1004 10 N 3.7
Oggi h: 07:50 molto_nuvoloso Molto Nuvoloso 8 6 87 1004 10 N 3.7
Oggi h: 07:20 molto_nuvoloso Molto Nuvoloso 7 6 93 1004 10 NO 7.4
Oggi h: 06:50 molto_nuvoloso Molto Nuvoloso 7 6 93 1003 10 NO 9.3
Oggi h: 06:20 molto_nuvoloso Molto Nuvoloso 8 5 81 1003 10 NO 7.4
Oggi h: 05:50 molto_nuvoloso Molto Nuvoloso 8 6 87 1003 10 S 7.4
Oggi h: 05:20 molto_nuvoloso Molto Nuvoloso 9 6 81 1002 10 SE 14.8
Oggi h: 04:50 molto_nuvoloso Molto Nuvoloso 8 6 87 1003 10 S/SE 9.3
Oggi h: 04:20 molto_nuvoloso Molto Nuvoloso 7 6 93 1003 10 N 5.5
Oggi h: 03:50 molto_nuvoloso Molto Nuvoloso 7 6 93 1004 10 E/SE 7.4
Oggi h: 03:20 molto_nuvoloso Molto Nuvoloso 7 6 93 1004 10 N 1.8
Oggi h: 02:50 nuvoloso_piovaschi Debole Rovescio di Pioggia 7 6 93 1004 10 N 5.5
Oggi h: 02:20 coperto_pioggia Pioviggine Leggera 7 6 93 1004 10 N 3.7
Oggi h: 01:50 coperto Coperto 6 6 100 1005 10 N 3.7
Oggi h: 01:20 molto_nuvoloso Molto Nuvoloso 6 5 93 1005 10 S 7.4
Oggi h: 00:50 poco_nuvoloso Poco Nuvoloso 6 6 100 1005 10 N 1.8
Oggi h: 00:20 nuvoloso Nuvoloso 6 6 100 1005 10 N 5.5
Ieri h: 23:50 nuvoloso Nuvoloso 7 6 93 1005 10 N 1.8
Ieri h: 23:20 nuvoloso Nuvoloso 7 6 93 1005 10 N 3.7
Ieri h: 22:50 poco_nuvoloso Poco Nuvoloso 8 6 87 1005 10 N 1.8
Ieri h: 22:20 poco_nuvoloso Poco Nuvoloso 8 7 93 1005 10 N 3.7
Ieri h: 21:50 poco_nuvoloso Poco Nuvoloso 9 7 87 1005 10 N 1.8
Ieri h: 21:20 nuvoloso Nuvoloso 9 7 87 1005 10 N 5.5
Ieri h: 20:50 poco_nuvoloso Poco Nuvoloso 11 7 76 1005 10 NE 9.3
Ieri h: 20:20 poco_nuvoloso Poco Nuvoloso 13 7 66 1005 10 NE 16.7
Ieri h: 19:50 poco_nuvoloso Poco Nuvoloso 13 7 66 1004 10 NE 18.5
Ieri h: 19:20 poco_nuvoloso Poco Nuvoloso 14 7 62 1004 10 NE 22.2
Ieri h: 18:50 poco_nuvoloso Poco Nuvoloso 15 7 58 1004 10 NE 20.3
Ieri h: 18:20 poco_nuvoloso Poco Nuvoloso 15 7 58 1004 10 NE 20.3
Ieri h: 17:50 poco_nuvoloso Poco Nuvoloso 16 7 55 1004 10 NE 20.3
Ieri h: 17:20 poco_nuvoloso Poco Nuvoloso 16 7 55 1004 10 E/NE 22.2
Ieri h: 16:50 poco_nuvoloso Poco Nuvoloso 16 7 55 1005 10 NE 20.3
Ieri h: 16:20 nuvoloso Nuvoloso 16 5 47 1005 10 E/NE 24
Ieri h: 15:50 nuvoloso Nuvoloso 15 6 54 1005 10 E/NE 25.9
Ieri h: 15:20 nuvoloso Nuvoloso 15 6 54 1005 10 E/NE 22.2
Ieri h: 14:50 nuvoloso Nuvoloso 15 6 54 1005 10 E/NE 22.2
Ieri h: 14:20 nuvoloso Nuvoloso 15 6 54 1006 10 NE 22.2
Ieri h: 13:50 molto_nuvoloso Molto Nuvoloso 15 8 62 1006 10 E/NE 16.7
Ieri h: 13:20 molto_nuvoloso Molto Nuvoloso 14 6 58 1006 10 E/NE 18.5
Ieri h: 12:50 molto_nuvoloso Molto Nuvoloso 14 7 62 1006 10 E/NE 11.1
Ieri h: 12:20 molto_nuvoloso Molto Nuvoloso 14 9 71 1006 10 SE 9.3
Ieri h: 11:50 molto_nuvoloso Molto Nuvoloso 14 8 67 1006 10 SE 11.1
Ieri h: 11:20 molto_nuvoloso Molto Nuvoloso 12 7 71 1007 10 SE 11.1
Ieri h: 10:50 molto_nuvoloso Molto Nuvoloso 11 8 81 1006 10 E/SE 11.1
Ieri h: 10:20 molto_nuvoloso Molto Nuvoloso 11 8 81 1007 10 N 5.5
Ieri h: 09:50 molto_nuvoloso Molto Nuvoloso 11 8 81 1006 10 E/SE 7.4